createdAt,value
2019-02-08T00:02:26.644Z,96230.47
2019-02-08T00:04:59.094Z,96235.28
2019-02-08T00:07:33.256Z,96229.73
2019-02-08T00:10:07.340Z,96223.52
2019-02-08T00:12:38.574Z,96225.95
2019-02-08T00:15:13.056Z,96234.02
2019-02-08T00:17:45.954Z,96233.77
2019-02-08T00:20:17.300Z,96236.62
2019-02-08T00:22:52.814Z,96236.28
2019-02-08T00:25:27.317Z,96243.99
2019-02-08T00:27:58.963Z,96235.22
2019-02-08T00:30:33.911Z,96240.01
2019-02-08T00:33:06.760Z,96237.25
2019-02-08T00:35:40.183Z,96247.84
2019-02-08T00:38:14.162Z,96247.22
2019-02-08T00:40:47.209Z,96245.19
2019-02-08T00:43:19.210Z,96242.80
2019-02-08T00:45:50.492Z,96243.13
2019-02-08T00:48:24.272Z,96247.98
2019-02-08T00:50:58.272Z,96246.91
2019-02-08T00:53:33.484Z,96241.41
2019-02-08T00:56:06.700Z,96242.03
2019-02-08T00:58:39.944Z,96240.34
2019-02-08T01:01:13.341Z,96245.63
2019-02-08T01:03:47.717Z,96248.55
2019-02-08T01:06:20.217Z,96256.11
2019-02-08T01:08:53.341Z,96248.67
2019-02-08T01:11:27.332Z,96247.34
2019-02-08T01:14:00.321Z,96250.86
2019-02-08T01:16:33.338Z,96247.09
2019-02-08T01:19:05.355Z,96246.64
2019-02-08T01:21:36.658Z,96245.97
2019-02-08T01:24:07.974Z,96250.55
2019-02-08T01:26:39.542Z,96247.03
2019-02-08T01:29:12.506Z,96248.80
2019-02-08T01:31:48.090Z,96249.16
2019-02-08T01:34:19.459Z,96248.84
2019-02-08T01:36:53.315Z,96245.42
2019-02-08T01:39:24.528Z,96252.00
2019-02-08T01:41:58.511Z,96259.09
2019-02-08T01:44:31.487Z,96256.56
2019-02-08T01:47:03.380Z,96253.20
2019-02-08T01:49:36.538Z,96250.53
2019-02-08T01:52:12.072Z,96254.34
2019-02-08T01:54:45.104Z,96256.29
2019-02-08T01:57:16.319Z,96255.16
2019-02-08T01:59:49.121Z,96262.78
2019-02-08T02:02:21.542Z,96265.83
2019-02-08T02:04:55.564Z,96266.27
2019-02-08T02:07:26.870Z,96276.56
2019-02-08T02:09:59.850Z,96279.94
2019-02-08T02:12:33.476Z,96279.80
2019-02-08T02:15:07.767Z,96288.91
2019-02-08T02:17:39.247Z,96284.02
2019-02-08T02:20:13.167Z,96279.42
2019-02-08T02:22:46.712Z,96291.28
2019-02-08T02:25:22.306Z,96289.84
2019-02-08T02:27:54.753Z,96290.89
2019-02-08T02:30:32.701Z,96298.63
2019-02-08T02:33:07.485Z,96297.53
2019-02-08T02:35:41.507Z,96301.45
2019-02-08T02:38:13.894Z,96310.63
2019-02-08T02:40:45.797Z,96317.39
2019-02-08T02:43:17.769Z,96319.05
2019-02-08T02:45:49.506Z,96325.66
2019-02-08T02:48:20.746Z,96327.66
2019-02-08T02:50:53.166Z,96326.57
2019-02-08T02:53:25.934Z,96333.73
2019-02-08T02:55:59.956Z,96331.59
2019-02-08T02:58:33.146Z,96335.39
2019-02-08T03:01:06.486Z,96345.73
2019-02-08T03:03:39.909Z,96347.35
2019-02-08T03:06:12.516Z,96356.35
2019-02-08T03:08:43.781Z,96364.05
2019-02-08T03:11:19.486Z,96365.81
2019-02-08T03:17:15.022Z,96372.47
2019-02-08T03:19:47.844Z,96372.92
2019-02-08T03:22:19.092Z,96376.28
2019-02-08T03:24:50.341Z,96374.62
2019-02-08T03:27:25.130Z,96381.25
2019-02-08T03:29:58.073Z,96379.69
2019-02-08T03:32:32.049Z,96377.22
2019-02-08T03:35:07.565Z,96380.91
2019-02-08T03:37:39.919Z,96383.09
2019-02-08T03:40:15.789Z,96383.92
2019-02-08T03:42:49.925Z,96384.08
2019-02-08T03:45:23.402Z,96389.73
2019-02-08T03:47:56.088Z,96390.01
2019-02-08T03:50:30.349Z,96387.78
2019-02-08T03:53:04.284Z,96389.64
2019-02-08T03:55:36.877Z,96390.08
2019-02-08T03:58:10.162Z,96384.27
2019-02-08T04:00:49.901Z,96391.58
2019-02-08T04:03:23.038Z,96390.16
2019-02-08T04:05:58.632Z,96390.12
2019-02-08T04:08:31.077Z,96393.81
2019-02-08T04:11:02.479Z,96403.16
2019-02-08T04:13:36.263Z,96403.22
2019-02-08T04:16:10.025Z,96403.72
2019-02-08T04:18:42.522Z,96411.17
2019-02-08T04:21:15.223Z,96414.20
2019-02-08T04:23:50.253Z,96416.98
2019-02-08T04:26:23.288Z,96415.09
2019-02-08T04:28:58.127Z,96426.04
2019-02-08T04:31:30.348Z,96421.16
2019-02-08T04:34:01.925Z,96423.88
2019-02-08T04:36:34.745Z,96424.37
2019-02-08T04:39:08.755Z,96426.17
2019-02-08T04:41:42.513Z,96420.91
2019-02-08T04:44:16.259Z,96423.09
2019-02-08T04:46:49.675Z,96428.52
2019-02-08T04:49:22.525Z,96430.94
2019-02-08T04:51:53.748Z,96431.18
2019-02-08T04:54:24.954Z,96429.42
2019-02-08T04:57:13.922Z,96440.78
2019-02-08T04:59:45.238Z,96443.66
2019-02-08T05:02:19.932Z,96441.55
2019-02-08T05:04:53.994Z,96443.52
2019-02-08T05:07:26.389Z,96444.14
2019-02-08T05:10:00.554Z,96449.37
2019-02-08T05:12:31.803Z,96446.92
2019-02-08T05:15:05.069Z,96444.60
2019-02-08T05:17:38.080Z,96441.98
2019-02-08T05:20:12.250Z,96443.25
2019-02-08T05:22:46.336Z,96451.20
2019-02-08T05:25:18.611Z,96452.19
2019-02-08T05:27:54.154Z,96450.01
2019-02-08T05:30:27.709Z,96456.45
2019-02-08T05:33:01.692Z,96461.02
2019-02-08T05:35:35.546Z,96461.88
2019-02-08T05:38:09.588Z,96461.66
2019-02-08T05:40:43.601Z,96466.51
2019-02-08T05:43:14.810Z,96471.94
2019-02-08T05:45:46.085Z,96471.23
2019-02-08T05:48:21.354Z,96477.13
2019-02-08T05:50:53.447Z,96484.22
2019-02-08T05:53:26.044Z,96477.66
2019-02-08T05:56:00.881Z,96474.10
2019-02-08T05:58:32.124Z,96476.99
2019-02-08T06:01:06.725Z,96471.84
2019-02-08T06:03:40.639Z,96482.81
2019-02-08T06:06:14.612Z,96479.09
2019-02-08T06:08:50.780Z,96488.14
2019-02-08T06:11:23.713Z,96492.31
2019-02-08T06:13:59.327Z,96497.63
2019-02-08T06:16:31.570Z,96496.74
2019-02-08T06:19:06.346Z,96493.21
2019-02-08T06:21:37.643Z,96501.30
2019-02-08T06:24:09.804Z,96501.86
2019-02-08T06:26:42.735Z,96503.33
2019-02-08T06:29:16.908Z,96507.76
2019-02-08T06:31:48.515Z,96507.69
2019-02-08T06:34:19.744Z,96508.95
2019-02-08T06:36:53.834Z,96515.55
2019-02-08T06:39:25.172Z,96520.67
2019-02-08T06:41:58.801Z,96525.11
2019-02-08T06:44:31.980Z,96522.66
2019-02-08T06:47:04.959Z,96531.36
2019-02-08T06:49:37.404Z,96536.59
2019-02-08T06:52:11.583Z,96541.42
2019-02-08T06:54:42.828Z,96541.05
2019-02-08T06:57:30.737Z,96538.38
2019-02-08T07:00:10.824Z,96540.14
2019-02-08T07:03:12.538Z,96537.48
2019-02-08T07:06:01.623Z,96537.48
2019-02-08T07:08:41.313Z,96542.35
2019-02-08T07:11:22.189Z,96541.28
2019-02-08T07:14:22.435Z,96545.84
2019-02-08T07:17:22.011Z,96544.02
2019-02-08T07:20:15.609Z,96541.19
2019-02-08T07:23:04.424Z,96540.92
2019-02-08T07:26:01.973Z,96551.98
2019-02-08T07:28:48.544Z,96553.88
2019-02-08T07:31:45.505Z,96556.34
2019-02-08T07:34:34.818Z,96557.61
2019-02-08T07:37:26.147Z,96551.05
2019-02-08T07:40:18.492Z,96555.30
2019-02-08T07:43:10.141Z,96562.08
2019-02-08T07:46:08.326Z,96565.17
2019-02-08T07:48:54.871Z,96566.61
2019-02-08T07:51:56.226Z,96565.47
2019-02-08T07:54:42.249Z,96566.63
2019-02-08T07:57:24.088Z,96570.55
2019-02-08T08:00:26.505Z,96567.69
2019-02-08T08:03:20.948Z,96570.59
2019-02-08T08:06:13.275Z,96568.70
2019-02-08T08:09:08.126Z,96554.09
2019-02-08T08:11:55.599Z,96552.50
2019-02-08T08:14:45.858Z,96556.06
2019-02-08T08:17:39.121Z,96562.36
2019-02-08T08:20:34.173Z,96554.97
2019-02-08T08:23:15.017Z,96558.09
2019-02-08T08:26:15.466Z,96559.20
2019-02-08T08:29:02.280Z,96559.95
2019-02-08T08:31:50.000Z,96555.50
2019-02-08T08:34:55.662Z,96555.53
2019-02-08T08:38:04.368Z,96547.57
2019-02-08T08:41:19.787Z,96544.73
2019-02-08T08:44:34.816Z,96543.61
2019-02-08T08:47:56.533Z,96548.25
2019-02-08T08:51:21.971Z,96537.25
2019-02-08T08:54:36.804Z,96537.71
2019-02-08T08:57:43.243Z,96533.25
2019-02-08T09:00:35.551Z,96533.91
2019-02-08T09:03:43.227Z,96542.41
2019-02-08T09:06:53.230Z,96548.92
2019-02-08T09:10:23.414Z,96551.31
2019-02-08T09:13:21.736Z,96559.08
2019-02-08T09:16:24.870Z,96560.03
2019-02-08T09:19:39.902Z,96571.87
2019-02-08T09:23:06.722Z,96564.41
2019-02-08T09:25:57.525Z,96567.36
2019-02-08T09:29:23.763Z,96562.96
2019-02-08T09:32:38.366Z,96560.80
2019-02-08T09:36:00.957Z,96557.56
2019-02-08T09:39:16.878Z,96556.87
2019-02-08T09:42:49.807Z,96552.84
2019-02-08T09:46:02.299Z,96558.76
2019-02-08T09:49:23.517Z,96560.03
2019-02-08T09:52:55.719Z,96561.47
2019-02-08T09:56:06.185Z,96566.31
2019-02-08T09:59:13.188Z,96563.77
2019-02-08T10:02:31.806Z,96560.80
2019-02-08T10:05:41.468Z,96568.26
2019-02-08T10:08:57.486Z,96577.82
2019-02-08T10:12:22.544Z,96571.47
2019-02-08T10:15:49.958Z,96562.33
2019-02-08T10:18:55.759Z,96556.02
2019-02-08T10:22:05.568Z,96545.83
2019-02-08T10:25:40.196Z,96544.16
2019-02-08T10:28:50.158Z,96536.16
2019-02-08T10:32:17.706Z,96535.38
2019-02-08T10:35:21.589Z,96544.06
2019-02-08T10:38:32.683Z,96541.23
2019-02-08T10:41:42.629Z,96534.91
2019-02-08T10:45:13.288Z,96532.09
2019-02-08T10:48:36.430Z,96528.95
2019-02-08T10:51:53.319Z,96525.34
2019-02-08T10:55:00.852Z,96535.02
2019-02-08T10:58:28.338Z,96521.12
2019-02-08T11:01:45.967Z,96525.37
2019-02-08T11:05:04.526Z,96522.21
2019-02-08T11:08:13.629Z,96515.55
2019-02-08T11:11:23.512Z,96515.89
2019-02-08T11:14:44.560Z,96519.34
2019-02-08T11:17:58.553Z,96509.97
2019-02-08T11:20:32.134Z,96503.46
2019-02-08T11:23:05.254Z,96515.71
2019-02-08T11:25:37.282Z,96507.26
2019-02-08T11:28:08.607Z,96505.86
2019-02-08T11:30:39.801Z,96511.88
2019-02-08T11:33:13.311Z,96498.92
2019-02-08T11:35:47.151Z,96496.11
2019-02-08T11:38:25.069Z,96498.26
2019-02-08T11:40:58.321Z,96495.30
2019-02-08T11:43:29.693Z,96490.78
2019-02-08T11:46:03.203Z,96497.49
2019-02-08T11:48:36.020Z,96496.89
2019-02-08T11:51:08.222Z,96493.45
2019-02-08T11:53:41.777Z,96492.42
2019-02-08T11:56:13.427Z,96483.23
2019-02-08T11:58:47.284Z,96485.48
2019-02-08T12:01:19.655Z,96476.91
2019-02-08T12:03:55.190Z,96480.64
2019-02-08T12:06:29.157Z,96472.20
2019-02-08T12:09:01.350Z,96474.03
2019-02-08T12:11:34.376Z,96465.25
2019-02-08T12:14:09.933Z,96471.03
2019-02-08T12:16:41.119Z,96396.16
2019-02-08T12:19:12.588Z,96461.95
2019-02-08T12:21:43.876Z,96458.26
2019-02-08T12:24:15.101Z,96450.34
2019-02-08T12:26:46.442Z,96458.53
2019-02-08T12:29:19.428Z,96457.61
2019-02-08T12:31:53.480Z,96446.86
2019-02-08T12:34:27.256Z,96441.53
2019-02-08T12:37:01.321Z,96449.33
2019-02-08T12:39:35.313Z,96447.08
2019-02-08T12:42:06.532Z,96437.22
2019-02-08T12:44:37.823Z,96437.33
2019-02-08T12:47:13.172Z,96436.05
2019-02-08T12:49:45.390Z,96439.39
2019-02-08T12:52:19.431Z,96434.87
2019-02-08T12:54:53.444Z,96425.53
2019-02-08T12:57:28.954Z,96430.09
2019-02-08T13:00:01.676Z,96420.77
2019-02-08T13:02:36.181Z,96423.53
2019-02-08T13:05:12.198Z,96426.28
2019-02-08T13:07:43.633Z,96427.40
2019-02-08T13:10:19.247Z,96428.66
2019-02-08T13:12:52.484Z,96423.60
2019-02-08T13:15:28.847Z,96412.58
2019-02-08T13:18:03.114Z,96410.95
2019-02-08T13:20:35.874Z,96409.88
2019-02-08T13:23:07.100Z,96411.00
2019-02-08T13:25:38.378Z,96409.13
2019-02-08T13:28:12.532Z,96407.73
2019-02-08T13:30:45.670Z,96407.81
2019-02-08T13:33:16.919Z,96397.27
2019-02-08T13:35:50.789Z,96402.45
2019-02-08T13:38:24.641Z,96407.36
2019-02-08T13:40:58.640Z,96404.20
2019-02-08T13:43:29.946Z,96402.23
2019-02-08T13:46:01.132Z,96402.22
2019-02-08T13:48:34.850Z,96394.27
2019-02-08T13:51:06.177Z,96401.53
2019-02-08T13:53:37.620Z,96404.00
2019-02-08T13:56:10.771Z,96396.79
2019-02-08T13:58:43.858Z,96389.01
2019-02-08T14:01:15.985Z,96392.61
2019-02-08T14:03:50.226Z,96397.08
2019-02-08T14:06:25.287Z,96398.23
2019-02-08T14:08:59.419Z,96392.67
2019-02-08T14:11:33.447Z,96390.06
2019-02-08T14:14:06.226Z,96379.19
2019-02-08T14:16:38.313Z,96374.75
2019-02-08T14:19:11.217Z,96370.07
2019-02-08T14:21:45.415Z,96375.71
2019-02-08T14:24:20.458Z,96364.70
2019-02-08T14:26:54.528Z,96365.52
2019-02-08T14:29:26.706Z,96363.84
2019-02-08T14:31:58.557Z,96361.15
2019-02-08T14:34:30.863Z,96349.81
2019-02-08T14:37:04.776Z,96342.85
2019-02-08T14:39:36.012Z,96342.30
2019-02-08T14:42:07.717Z,96339.27
2019-02-08T14:44:40.706Z,96341.94
2019-02-08T14:47:12.373Z,96336.16
2019-02-08T14:49:46.031Z,96336.33
2019-02-08T14:52:17.236Z,96332.84
2019-02-08T14:54:51.073Z,96334.55
2019-02-08T14:57:25.104Z,96335.65
2019-02-08T14:59:59.228Z,96347.24
2019-02-08T15:02:30.883Z,96350.80
2019-02-08T15:05:08.287Z,96342.83
2019-02-08T15:07:40.996Z,96342.95
2019-02-08T15:10:20.148Z,96349.22
2019-02-08T15:12:51.987Z,96339.67
2019-02-08T15:15:26.538Z,96344.79
2019-02-08T15:18:01.869Z,96339.65
2019-02-08T15:20:34.249Z,96340.57
2019-02-08T15:23:08.383Z,96328.75
2019-02-08T15:25:39.679Z,96324.38
2019-02-08T15:28:13.272Z,96318.39
2019-02-08T15:30:47.301Z,96320.25
2019-02-08T15:33:20.091Z,96317.02
2019-02-08T15:35:52.243Z,96316.27
2019-02-08T15:38:23.452Z,96317.63
2019-02-08T15:40:57.493Z,96322.61
2019-02-08T15:43:31.008Z,96319.77
2019-02-08T15:46:04.431Z,96317.08
2019-02-08T15:48:36.190Z,96312.76
2019-02-08T15:51:12.693Z,96309.02
2019-02-08T15:53:44.289Z,96310.06
2019-02-08T15:56:18.751Z,96307.33
2019-02-08T15:58:50.289Z,96301.41
2019-02-08T16:01:24.210Z,96294.88
2019-02-08T16:03:56.841Z,96300.61
2019-02-08T16:06:30.367Z,96293.83
2019-02-08T16:09:01.608Z,96302.55
2019-02-08T16:11:35.351Z,96309.05
2019-02-08T16:14:08.112Z,96305.31
2019-02-08T16:16:41.453Z,96309.59
2019-02-08T16:19:14.529Z,96315.06
2019-02-08T16:21:45.720Z,96321.87
2019-02-08T16:24:18.378Z,96320.33
2019-02-08T16:26:52.360Z,96322.97
2019-02-08T16:29:26.391Z,96316.80
2019-02-08T16:32:00.384Z,96315.12
2019-02-08T16:34:31.580Z,96316.06
2019-02-08T16:37:05.573Z,96320.28
2019-02-08T16:39:36.744Z,96311.00
2019-02-08T16:42:08.016Z,96306.81
2019-02-08T16:44:41.409Z,96309.03
2019-02-08T16:47:13.749Z,96311.42
2019-02-08T16:49:46.420Z,96315.69
2019-02-08T16:52:20.723Z,96313.00
2019-02-08T16:54:54.712Z,96310.63
2019-02-08T16:57:28.558Z,96306.97
2019-02-08T17:00:01.386Z,96305.11
2019-02-08T17:02:34.862Z,96302.27
2019-02-08T17:05:11.674Z,96307.56
2019-02-08T17:07:44.687Z,96304.08
2019-02-08T17:10:18.726Z,96299.20
2019-02-08T17:12:52.896Z,96302.58
2019-02-08T17:15:27.006Z,96296.00
2019-02-08T17:18:00.144Z,96294.73
2019-02-08T17:20:36.685Z,96283.25
2019-02-08T17:23:09.052Z,96278.06
2019-02-08T17:25:42.511Z,96280.95
2019-02-08T17:28:34.615Z,96274.53
2019-02-08T17:31:07.710Z,96276.98
2019-02-08T17:33:41.648Z,96274.45
2019-02-08T17:36:14.888Z,96268.61
2019-02-08T17:38:48.643Z,96265.52
2019-02-08T17:41:22.433Z,96271.01
2019-02-08T17:43:57.603Z,96265.78
2019-02-08T17:46:31.807Z,96264.44
2019-02-08T17:49:03.149Z,96266.70
2019-02-08T17:51:37.009Z,96269.25
2019-02-08T17:54:10.827Z,96267.73
2019-02-08T17:56:44.917Z,96270.09
2019-02-08T17:59:17.779Z,96265.16
2019-02-08T18:01:49.792Z,96267.17
2019-02-08T18:04:25.189Z,96267.95
2019-02-08T18:06:57.816Z,96264.93
2019-02-08T18:09:31.047Z,96258.00
2019-02-08T18:12:05.049Z,96255.63
2019-02-08T18:14:37.864Z,96253.73
2019-02-08T18:17:10.325Z,96253.56
2019-02-08T18:19:44.033Z,96255.84
2019-02-08T18:22:15.291Z,96250.95
2019-02-08T18:24:48.994Z,96255.73
2019-02-08T18:27:24.535Z,96252.05
2019-02-08T18:29:57.018Z,96245.97
2019-02-08T18:32:31.004Z,96238.84
2019-02-08T18:35:04.289Z,96239.86
2019-02-08T18:37:35.531Z,96237.77
2019-02-08T18:40:07.789Z,96241.52
2019-02-08T18:42:42.071Z,96238.85
2019-02-08T18:45:19.694Z,96237.22
2019-02-08T18:47:51.046Z,96237.87
2019-02-08T18:50:27.373Z,96236.95
2019-02-08T18:52:59.190Z,96237.39
2019-02-08T18:55:33.198Z,96231.97
2019-02-08T18:58:04.879Z,96230.30
2019-02-08T19:00:40.481Z,96226.41
2019-02-08T19:03:22.422Z,96218.18
2019-02-08T19:06:01.106Z,96223.27
2019-02-08T19:08:32.706Z,96216.73
2019-02-08T19:11:06.296Z,96218.31
2019-02-08T19:13:38.270Z,96219.56
2019-02-08T19:16:11.155Z,96205.81
2019-02-08T19:18:45.521Z,96213.55
2019-02-08T19:21:19.225Z,96209.33
2019-02-08T19:23:54.492Z,96207.14
2019-02-08T19:26:27.279Z,96208.46
2019-02-08T19:29:02.778Z,96205.74
2019-02-08T19:31:35.321Z,96203.02
2019-02-08T19:34:10.847Z,96197.52
2019-02-08T19:36:43.341Z,96199.21
2019-02-08T19:39:14.611Z,96195.80
2019-02-08T19:41:48.192Z,96193.03
2019-02-08T19:44:22.276Z,96191.52
2019-02-08T19:46:58.010Z,96192.15
2019-02-08T19:49:30.227Z,96184.58
2019-02-08T19:52:04.174Z,96186.87
2019-02-08T19:54:37.645Z,96188.74
2019-02-08T19:57:14.683Z,96185.02
2019-02-08T19:59:47.302Z,96182.26
2019-02-08T20:02:19.447Z,96183.13
2019-02-08T20:04:53.444Z,96176.52
2019-02-08T20:07:26.755Z,96176.33
2019-02-08T20:09:58.296Z,96176.52
2019-02-08T20:12:32.263Z,96181.56
2019-02-08T20:15:07.718Z,96179.11
2019-02-08T20:17:41.458Z,96176.17
2019-02-08T20:20:14.416Z,96179.92
2019-02-08T20:22:45.656Z,96179.03
2019-02-08T20:25:26.414Z,96183.02
2019-02-08T20:27:59.621Z,96180.37
2019-02-08T20:30:33.701Z,96175.69
2019-02-08T20:33:08.054Z,96167.91
2019-02-08T20:35:43.144Z,96172.04
2019-02-08T20:38:15.641Z,96162.64
2019-02-08T20:40:49.858Z,96156.77
2019-02-08T20:43:23.618Z,96157.95
2019-02-08T20:45:54.851Z,96158.02
2019-02-08T20:48:28.448Z,96153.54
2019-02-08T20:51:02.577Z,96152.48
2019-02-08T20:53:34.773Z,96143.31
2019-02-08T20:56:07.783Z,96148.06
2019-02-08T20:58:49.810Z,96148.23
2019-02-08T21:01:15.651Z,96150.05
2019-02-08T21:03:47.654Z,96144.84
2019-02-08T21:06:24.213Z,96144.00
2019-02-08T21:08:57.782Z,96136.93
2019-02-08T21:11:31.703Z,96138.27
2019-02-08T21:14:05.621Z,96138.53
2019-02-08T21:16:38.069Z,96132.66
2019-02-08T21:19:12.910Z,96133.72
2019-02-08T21:21:45.663Z,96136.14
2019-02-08T21:24:18.796Z,96128.11
2019-02-08T21:26:51.042Z,96119.64
2019-02-08T21:29:24.473Z,96116.63
2019-02-08T21:31:58.091Z,96117.31
2019-02-08T21:34:31.702Z,96117.38
2019-02-08T21:37:07.443Z,96112.03
2019-02-08T21:39:39.089Z,96108.35
2019-02-08T21:42:10.994Z,96109.88
2019-02-08T21:44:42.224Z,96105.53
2019-02-08T21:47:15.861Z,96099.66
2019-02-08T21:49:47.775Z,96095.11
2019-02-08T21:52:20.681Z,96094.84
2019-02-08T21:54:51.978Z,96091.89
2019-02-08T21:57:25.731Z,96083.48
2019-02-08T21:59:56.938Z,96074.80
2019-02-08T22:02:28.148Z,96072.20
2019-02-08T22:05:01.078Z,96067.86
2019-02-08T22:07:34.845Z,96073.80
2019-02-08T22:10:07.822Z,96063.70
2019-02-08T22:12:40.719Z,96059.42
2019-02-08T22:15:18.579Z,96060.79
2019-02-08T22:17:51.999Z,96056.58
2019-02-08T22:20:26.399Z,96050.47
2019-02-08T22:22:59.945Z,96050.60
2019-02-08T22:25:33.595Z,96054.62
2019-02-08T22:28:08.862Z,96045.98
2019-02-08T22:30:43.757Z,96047.19
2019-02-08T22:33:14.961Z,96042.41
2019-02-08T22:35:47.978Z,96038.28
2019-02-08T22:38:21.701Z,96038.42
2019-02-08T22:40:54.113Z,96038.79
2019-02-08T22:43:25.320Z,96035.97
2019-02-08T22:45:56.533Z,96037.73
2019-02-08T22:48:27.765Z,96030.42
2019-02-08T22:51:01.021Z,96027.84
2019-02-08T22:53:36.818Z,96023.36
2019-02-08T22:56:08.990Z,96029.53
2019-02-08T22:58:43.448Z,96016.59
2019-02-08T23:01:31.975Z,96011.19
2019-02-08T23:04:05.007Z,96004.81
2019-02-08T23:06:44.471Z,96001.42
2019-02-08T23:09:20.861Z,96001.17
2019-02-08T23:11:54.195Z,95993.91
2019-02-08T23:14:28.213Z,95995.93
2019-02-08T23:17:02.152Z,95992.84
2019-02-08T23:19:36.128Z,95991.95
2019-02-08T23:22:10.148Z,95990.13
2019-02-08T23:24:42.948Z,95996.98
2019-02-08T23:27:15.215Z,95998.64
2019-02-08T23:29:50.675Z,95991.52
2019-02-08T23:32:23.261Z,95992.91
2019-02-08T23:34:54.495Z,95981.30
2019-02-08T23:37:26.462Z,95978.28
2019-02-08T23:39:59.241Z,95968.77
2019-02-08T23:42:32.209Z,95969.13
2019-02-08T23:45:06.647Z,95967.17
2019-02-08T23:47:38.493Z,95965.55
2019-02-08T23:50:13.975Z,95959.05
2019-02-08T23:52:47.367Z,95955.34
2019-02-08T23:55:20.539Z,95960.31
2019-02-08T23:57:54.069Z,95957.79
